sensor_id;sensor_type;location;lat;lon;timestamp;pressure;altitude;pressure_sealevel;temperature;humidity
24752;BME280;27246;52.376;4.628;2023-03-20T00:02:19;101773.56;;;7.44;96.57
24752;BME280;27246;52.376;4.628;2023-03-20T00:07:21;101773.38;;;7.36;97.41
24752;BME280;27246;52.376;4.628;2023-03-20T00:12:23;101770.09;;;7.42;97.51
24752;BME280;27246;52.376;4.628;2023-03-20T00:17:28;101782.31;;;7.38;97.35
24752;BME280;27246;52.376;4.628;2023-03-20T00:22:30;101783.06;;;7.40;97.13
24752;BME280;27246;52.376;4.628;2023-03-20T00:27:33;101806.13;;;7.37;97.05
24752;BME280;27246;52.376;4.628;2023-03-20T00:32:34;101800.38;;;7.40;96.13
24752;BME280;27246;52.376;4.628;2023-03-20T00:37:36;101796.91;;;7.38;95.04
24752;BME280;27246;52.376;4.628;2023-03-20T00:42:38;101787.25;;;7.34;94.80
24752;BME280;27246;52.376;4.628;2023-03-20T00:47:40;101790.84;;;7.35;94.42
24752;BME280;27246;52.376;4.628;2023-03-20T00:52:42;101793.00;;;7.31;93.80
24752;BME280;27246;52.376;4.628;2023-03-20T00:57:51;101800.22;;;7.32;93.30
24752;BME280;27246;52.376;4.628;2023-03-20T01:02:55;101805.59;;;7.44;93.27
24752;BME280;27246;52.376;4.628;2023-03-20T01:07:58;101791.44;;;7.38;91.93
24752;BME280;27246;52.376;4.628;2023-03-20T01:13:00;101796.19;;;7.36;91.79
24752;BME280;27246;52.376;4.628;2023-03-20T01:18:02;101799.78;;;7.37;90.99
24752;BME280;27246;52.376;4.628;2023-03-20T01:23:04;101833.53;;;7.37;90.91
24752;BME280;27246;52.376;4.628;2023-03-20T01:28:21;101829.22;;;7.35;90.66
24752;BME280;27246;52.376;4.628;2023-03-20T01:33:24;101831.53;;;7.39;91.00
24752;BME280;27246;52.376;4.628;2023-03-20T01:38:29;101830.06;;;7.35;90.83
24752;BME280;27246;52.376;4.628;2023-03-20T01:43:33;101813.94;;;7.32;89.96
24752;BME280;27246;52.376;4.628;2023-03-20T01:54:07;101790.81;;;7.25;89.02
24752;BME280;27246;52.376;4.628;2023-03-20T01:59:25;101788.22;;;7.24;88.79
24752;BME280;27246;52.376;4.628;2023-03-20T02:04:40;101775.41;;;7.24;89.18
24752;BME280;27246;52.376;4.628;2023-03-20T02:09:47;101783.06;;;7.30;88.20
24752;BME280;27246;52.376;4.628;2023-03-20T02:14:56;101761.41;;;7.27;88.39
24752;BME280;27246;52.376;4.628;2023-03-20T02:47:31;101727.34;;;7.10;90.20
24752;BME280;27246;52.376;4.628;2023-03-20T02:52:49;101734.22;;;7.05;90.27
24752;BME280;27246;52.376;4.628;2023-03-20T02:58:13;101736.09;;;7.14;90.35
24752;BME280;27246;52.376;4.628;2023-03-20T03:03:24;101729.63;;;7.15;90.36
24752;BME280;27246;52.376;4.628;2023-03-20T03:08:31;101727.59;;;7.07;90.34
24752;BME280;27246;52.376;4.628;2023-03-20T03:13:54;101712.75;;;7.10;90.60
24752;BME280;27246;52.376;4.628;2023-03-20T03:19:04;101711.19;;;7.17;89.92
24752;BME280;27246;52.376;4.628;2023-03-20T03:24:30;101700.22;;;7.17;90.58
24752;BME280;27246;52.376;4.628;2023-03-20T03:29:44;101694.88;;;7.15;90.70
24752;BME280;27246;52.376;4.628;2023-03-20T03:34:49;101668.47;;;7.05;91.68
24752;BME280;27246;52.376;4.628;2023-03-20T03:40:00;101677.44;;;7.16;92.01
24752;BME280;27246;52.376;4.628;2023-03-20T03:45:08;101676.25;;;6.99;92.75
24752;BME280;27246;52.376;4.628;2023-03-20T03:50:17;101675.69;;;6.96;93.66
24752;BME280;27246;52.376;4.628;2023-03-20T03:55:24;101665.28;;;6.99;94.01
24752;BME280;27246;52.376;4.628;2023-03-20T04:00:41;101679.56;;;7.03;93.48
24752;BME280;27246;52.376;4.628;2023-03-20T04:05:45;101687.53;;;7.06;93.63
24752;BME280;27246;52.376;4.628;2023-03-20T04:10:47;101680.88;;;6.99;92.86
24752;BME280;27246;52.376;4.628;2023-03-20T04:15:49;101686.94;;;7.02;92.88
24752;BME280;27246;52.376;4.628;2023-03-20T04:20:50;101683.47;;;7.00;92.44
24752;BME280;27246;52.376;4.628;2023-03-20T04:25:52;101677.41;;;6.97;92.38
24752;BME280;27246;52.376;4.628;2023-03-20T04:30:58;101668.03;;;6.99;92.20
24752;BME280;27246;52.376;4.628;2023-03-20T04:36:24;101667.03;;;7.00;92.29
24752;BME280;27246;52.376;4.628;2023-03-20T04:41:27;101665.84;;;6.93;92.03
24752;BME280;27246;52.376;4.628;2023-03-20T04:46:31;101652.63;;;6.98;91.94
24752;BME280;27246;52.376;4.628;2023-03-20T04:51:35;101646.13;;;6.99;91.53
24752;BME280;27246;52.376;4.628;2023-03-20T04:56:37;101653.34;;;7.00;90.75
24752;BME280;27246;52.376;4.628;2023-03-20T05:01:48;101650.16;;;6.95;91.17
24752;BME280;27246;52.376;4.628;2023-03-20T05:06:50;101661.25;;;6.84;91.16
24752;BME280;27246;52.376;4.628;2023-03-20T05:11:55;101655.19;;;6.90;91.21
24752;BME280;27246;52.376;4.628;2023-03-20T05:17:15;101648.69;;;6.91;91.63
24752;BME280;27246;52.376;4.628;2023-03-20T05:22:37;101653.19;;;6.92;91.46
24752;BME280;27246;52.376;4.628;2023-03-20T05:27:46;101648.53;;;6.83;91.44
24752;BME280;27246;52.376;4.628;2023-03-20T05:33:26;101642.94;;;6.94;91.43
24752;BME280;27246;52.376;4.628;2023-03-20T05:38:47;101641.78;;;6.97;91.65
24752;BME280;27246;52.376;4.628;2023-03-20T05:44:06;101646.13;;;6.90;91.99
24752;BME280;27246;52.376;4.628;2023-03-20T05:49:27;101645.78;;;6.83;92.07
24752;BME280;27246;52.376;4.628;2023-03-20T05:54:47;101646.66;;;6.84;92.40
24752;BME280;27246;52.376;4.628;2023-03-20T05:59:56;101653.75;;;6.86;92.59
24752;BME280;27246;52.376;4.628;2023-03-20T06:05:13;101655.75;;;6.84;93.42
24752;BME280;27246;52.376;4.628;2023-03-20T06:10:20;101653.19;;;6.92;93.08
24752;BME280;27246;52.376;4.628;2023-03-20T06:15:24;101652.28;;;6.82;93.74
24752;BME280;27246;52.376;4.628;2023-03-20T06:20:33;101656.91;;;6.91;94.17
24752;BME280;27246;52.376;4.628;2023-03-20T06:25:37;101659.63;;;6.81;94.20
24752;BME280;27246;52.376;4.628;2023-03-20T06:30:40;101664.41;;;6.89;94.15
24752;BME280;27246;52.376;4.628;2023-03-20T06:35:47;101666.75;;;6.94;94.93
24752;BME280;27246;52.376;4.628;2023-03-20T06:40:49;101666.88;;;6.92;94.54
24752;BME280;27246;52.376;4.628;2023-03-20T06:45:52;101667.31;;;6.88;94.62
24752;BME280;27246;52.376;4.628;2023-03-20T06:50:56;101669.44;;;6.84;95.18
24752;BME280;27246;52.376;4.628;2023-03-20T06:56:04;101667.56;;;6.85;95.17
24752;BME280;27246;52.376;4.628;2023-03-20T07:01:11;101666.53;;;6.76;95.73
24752;BME280;27246;52.376;4.628;2023-03-20T07:06:14;101671.00;;;6.77;96.35
24752;BME280;27246;52.376;4.628;2023-03-20T07:11:16;101677.66;;;6.84;96.43
24752;BME280;27246;52.376;4.628;2023-03-20T07:16:18;101676.94;;;6.82;96.24
24752;BME280;27246;52.376;4.628;2023-03-20T07:21:21;101674.22;;;6.92;96.28
24752;BME280;27246;52.376;4.628;2023-03-20T07:26:23;101681.13;;;6.86;96.54
24752;BME280;27246;52.376;4.628;2023-03-20T07:31:27;101683.56;;;6.89;96.08
24752;BME280;27246;52.376;4.628;2023-03-20T07:36:41;101691.94;;;6.97;96.09
24752;BME280;27246;52.376;4.628;2023-03-20T07:41:44;101690.66;;;7.01;95.58
24752;BME280;27246;52.376;4.628;2023-03-20T07:46:56;101692.41;;;7.02;95.36
24752;BME280;27246;52.376;4.628;2023-03-20T07:51:58;101692.13;;;7.06;96.24
24752;BME280;27246;52.376;4.628;2023-03-20T07:57:00;101702.91;;;6.97;96.50
24752;BME280;27246;52.376;4.628;2023-03-20T08:02:02;101704.75;;;6.87;97.63
24752;BME280;27246;52.376;4.628;2023-03-20T08:07:04;101695.97;;;6.93;99.35
24752;BME280;27246;52.376;4.628;2023-03-20T08:12:06;101696.53;;;6.87;100.00
24752;BME280;27246;52.376;4.628;2023-03-20T08:17:08;101694.69;;;6.88;100.00
24752;BME280;27246;52.376;4.628;2023-03-20T08:22:16;101691.53;;;6.92;100.00
24752;BME280;27246;52.376;4.628;2023-03-20T08:27:18;101694.97;;;6.85;100.00
24752;BME280;27246;52.376;4.628;2023-03-20T08:32:19;101688.28;;;6.77;100.00
24752;BME280;27246;52.376;4.628;2023-03-20T08:37:21;101688.16;;;6.79;100.00
24752;BME280;27246;52.376;4.628;2023-03-20T08:42:23;101686.59;;;6.86;100.00
24752;BME280;27246;52.376;4.628;2023-03-20T08:47:24;101686.00;;;6.82;100.00
24752;BME280;27246;52.376;4.628;2023-03-20T08:52:26;101685.16;;;6.82;100.00
24752;BME280;27246;52.376;4.628;2023-03-20T08:57:28;101678.22;;;6.78;100.00
24752;BME280;27246;52.376;4.628;2023-03-20T09:02:30;101671.31;;;6.84;100.00
24752;BME280;27246;52.376;4.628;2023-03-20T09:07:32;101672.03;;;6.86;100.00
24752;BME280;27246;52.376;4.628;2023-03-20T09:12:33;101677.69;;;6.94;100.00
24752;BME280;27246;52.376;4.628;2023-03-20T09:17:36;101663.44;;;7.00;100.00
24752;BME280;27246;52.376;4.628;2023-03-20T09:22:37;101671.34;;;7.03;100.00
24752;BME280;27246;52.376;4.628;2023-03-20T09:27:41;101671.50;;;7.01;100.00
24752;BME280;27246;52.376;4.628;2023-03-20T09:32:43;101673.97;;;7.05;100.00
24752;BME280;27246;52.376;4.628;2023-03-20T09:37:45;101677.44;;;7.07;100.00
24752;BME280;27246;52.376;4.628;2023-03-20T09:42:52;101677.13;;;7.10;100.00
24752;BME280;27246;52.376;4.628;2023-03-20T09:48:12;101678.88;;;7.11;100.00
24752;BME280;27246;52.376;4.628;2023-03-20T09:53:36;101670.91;;;7.08;100.00
24752;BME280;27246;52.376;4.628;2023-03-20T09:58:41;101671.06;;;7.16;100.00
24752;BME280;27246;52.376;4.628;2023-03-20T10:03:50;101683.63;;;7.09;100.00
24752;BME280;27246;52.376;4.628;2023-03-20T10:08:53;101668.03;;;7.09;100.00
24752;BME280;27246;52.376;4.628;2023-03-20T10:19:06;101664.16;;;7.02;100.00
24752;BME280;27246;52.376;4.628;2023-03-20T10:24:48;101663.44;;;7.10;100.00
24752;BME280;27246;52.376;4.628;2023-03-20T10:29:51;101671.09;;;7.06;100.00
24752;BME280;27246;52.376;4.628;2023-03-20T10:35:16;101662.16;;;7.04;100.00
24752;BME280;27246;52.376;4.628;2023-03-20T10:40:31;101668.63;;;7.03;100.00
24752;BME280;27246;52.376;4.628;2023-03-20T10:50:50;101654.22;;;7.11;100.00
24752;BME280;27246;52.376;4.628;2023-03-20T10:55:57;101672.53;;;7.10;100.00
24752;BME280;27246;52.376;4.628;2023-03-20T11:01:00;101658.25;;;7.07;100.00
24752;BME280;27246;52.376;4.628;2023-03-20T11:06:17;101655.94;;;7.12;100.00
24752;BME280;27246;52.376;4.628;2023-03-20T11:11:25;101642.53;;;7.09;100.00
24752;BME280;27246;52.376;4.628;2023-03-20T11:16:33;101632.00;;;7.14;100.00
24752;BME280;27246;52.376;4.628;2023-03-20T11:21:52;101638.75;;;7.10;100.00
24752;BME280;27246;52.376;4.628;2023-03-20T11:27:04;101641.38;;;7.21;100.00
24752;BME280;27246;52.376;4.628;2023-03-20T11:32:10;101637.94;;;7.19;100.00
24752;BME280;27246;52.376;4.628;2023-03-20T11:37:25;101632.72;;;7.16;100.00
24752;BME280;27246;52.376;4.628;2023-03-20T11:42:29;101628.41;;;7.23;100.00
24752;BME280;27246;52.376;4.628;2023-03-20T11:47:33;101622.34;;;7.19;100.00
24752;BME280;27246;52.376;4.628;2023-03-20T11:52:38;101630.16;;;7.24;100.00
24752;BME280;27246;52.376;4.628;2023-03-20T11:57:41;101623.78;;;7.24;100.00
24752;BME280;27246;52.376;4.628;2023-03-20T12:02:43;101618.59;;;7.20;100.00
24752;BME280;27246;52.376;4.628;2023-03-20T12:07:47;101624.66;;;7.24;100.00
24752;BME280;27246;52.376;4.628;2023-03-20T12:12:56;101622.34;;;7.29;100.00
24752;BME280;27246;52.376;4.628;2023-03-20T12:18:02;101625.09;;;7.29;100.00
24752;BME280;27246;52.376;4.628;2023-03-20T12:28:23;101619.75;;;7.37;100.00
24752;BME280;27246;52.376;4.628;2023-03-20T12:33:39;101605.47;;;7.34;100.00
24752;BME280;27246;52.376;4.628;2023-03-20T12:38:43;101608.78;;;7.37;100.00
24752;BME280;27246;52.376;4.628;2023-03-20T12:54:56;101588.03;;;7.35;100.00
24752;BME280;27246;52.376;4.628;2023-03-20T13:15:41;101578.53;;;7.49;100.00
24752;BME280;27246;52.376;4.628;2023-03-20T13:20:56;101574.75;;;7.50;100.00
24752;BME280;27246;52.376;4.628;2023-03-20T13:31:35;101561.75;;;7.52;100.00
24752;BME280;27246;52.376;4.628;2023-03-20T13:36:42;101566.66;;;7.58;100.00
24752;BME280;27246;52.376;4.628;2023-03-20T13:41:51;101555.41;;;7.61;100.00
24752;BME280;27246;52.376;4.628;2023-03-20T13:46:56;101562.19;;;7.57;100.00
24752;BME280;27246;52.376;4.628;2023-03-20T13:52:14;101557.13;;;7.62;100.00
24752;BME280;27246;52.376;4.628;2023-03-20T13:57:44;101558.28;;;7.59;100.00
24752;BME280;27246;52.376;4.628;2023-03-20T14:13:31;101561.91;;;7.50;100.00
24752;BME280;27246;52.376;4.628;2023-03-20T14:18:34;101553.53;;;7.52;100.00
24752;BME280;27246;52.376;4.628;2023-03-20T14:23:39;101555.69;;;7.48;100.00
24752;BME280;27246;52.376;4.628;2023-03-20T14:28:53;101552.53;;;7.53;100.00
24752;BME280;27246;52.376;4.628;2023-03-20T14:34:14;101543.72;;;7.59;100.00
24752;BME280;27246;52.376;4.628;2023-03-20T14:39:22;101548.50;;;7.57;100.00
24752;BME280;27246;52.376;4.628;2023-03-20T14:54:51;101544.03;;;7.46;100.00
24752;BME280;27246;52.376;4.628;2023-03-20T14:59:54;101524.84;;;7.36;100.00
24752;BME280;27246;52.376;4.628;2023-03-20T15:04:55;101527.59;;;7.36;100.00
24752;BME280;27246;52.376;4.628;2023-03-20T15:09:59;101525.56;;;7.38;100.00
24752;BME280;27246;52.376;4.628;2023-03-20T15:15:05;101516.75;;;7.35;100.00
24752;BME280;27246;52.376;4.628;2023-03-20T15:20:13;101512.28;;;7.44;100.00
24752;BME280;27246;52.376;4.628;2023-03-20T15:25:17;101521.66;;;7.51;100.00
24752;BME280;27246;52.376;4.628;2023-03-20T15:30:21;101518.22;;;7.49;100.00
24752;BME280;27246;52.376;4.628;2023-03-20T15:35:25;101531.19;;;7.47;100.00
24752;BME280;27246;52.376;4.628;2023-03-20T15:40:29;101510.72;;;7.51;100.00
24752;BME280;27246;52.376;4.628;2023-03-20T15:45:51;101506.22;;;7.50;100.00
24752;BME280;27246;52.376;4.628;2023-03-20T15:51:08;101511.81;;;7.58;100.00
24752;BME280;27246;52.376;4.628;2023-03-20T15:56:13;101506.34;;;7.58;100.00
24752;BME280;27246;52.376;4.628;2023-03-20T16:01:21;101507.25;;;7.49;100.00
24752;BME280;27246;52.376;4.628;2023-03-20T16:06:24;101510.38;;;7.54;100.00
24752;BME280;27246;52.376;4.628;2023-03-20T16:11:36;101509.81;;;7.50;100.00
24752;BME280;27246;52.376;4.628;2023-03-20T16:16:38;101507.50;;;7.55;100.00
24752;BME280;27246;52.376;4.628;2023-03-20T16:21:45;101501.44;;;7.52;100.00
24752;BME280;27246;52.376;4.628;2023-03-20T16:26:51;101505.78;;;7.54;100.00
24752;BME280;27246;52.376;4.628;2023-03-20T16:32:22;101507.78;;;7.52;100.00
24752;BME280;27246;52.376;4.628;2023-03-20T16:37:30;101503.94;;;7.45;100.00
24752;BME280;27246;52.376;4.628;2023-03-20T16:42:32;101504.50;;;7.49;100.00
24752;BME280;27246;52.376;4.628;2023-03-20T16:47:38;101504.91;;;7.54;100.00
24752;BME280;27246;52.376;4.628;2023-03-20T16:52:44;101512.28;;;7.53;100.00
24752;BME280;27246;52.376;4.628;2023-03-20T16:57:49;101512.41;;;7.52;100.00
24752;BME280;27246;52.376;4.628;2023-03-20T17:03:17;101500.03;;;7.48;100.00
24752;BME280;27246;52.376;4.628;2023-03-20T17:08:28;101506.09;;;7.41;100.00
24752;BME280;27246;52.376;4.628;2023-03-20T17:13:30;101504.34;;;7.50;100.00
24752;BME280;27246;52.376;4.628;2023-03-20T17:18:32;101497.72;;;7.43;100.00
24752;BME280;27246;52.376;4.628;2023-03-20T17:23:34;101511.28;;;7.45;100.00
24752;BME280;27246;52.376;4.628;2023-03-20T17:28:37;101515.03;;;7.44;100.00
24752;BME280;27246;52.376;4.628;2023-03-20T17:33:39;101520.94;;;7.49;100.00
24752;BME280;27246;52.376;4.628;2023-03-20T17:38:40;101518.50;;;7.46;100.00
24752;BME280;27246;52.376;4.628;2023-03-20T17:43:43;101512.00;;;7.47;100.00
24752;BME280;27246;52.376;4.628;2023-03-20T17:48:46;101523.25;;;7.44;100.00
24752;BME280;27246;52.376;4.628;2023-03-20T17:53:48;101518.63;;;7.44;100.00
24752;BME280;27246;52.376;4.628;2023-03-20T17:58:56;101515.31;;;7.40;100.00
24752;BME280;27246;52.376;4.628;2023-03-20T18:03:57;101524.56;;;7.49;100.00
24752;BME280;27246;52.376;4.628;2023-03-20T18:09:00;101529.47;;;7.46;100.00
24752;BME280;27246;52.376;4.628;2023-03-20T18:14:04;101535.78;;;7.46;100.00
24752;BME280;27246;52.376;4.628;2023-03-20T18:19:24;101526.56;;;7.47;100.00
24752;BME280;27246;52.376;4.628;2023-03-20T18:24:28;101538.72;;;7.45;100.00
24752;BME280;27246;52.376;4.628;2023-03-20T18:29:30;101532.06;;;7.47;100.00
24752;BME280;27246;52.376;4.628;2023-03-20T18:34:32;101536.09;;;7.53;100.00
24752;BME280;27246;52.376;4.628;2023-03-20T18:39:33;101537.69;;;7.46;100.00
24752;BME280;27246;52.376;4.628;2023-03-20T18:44:35;101525.41;;;7.50;100.00
24752;BME280;27246;52.376;4.628;2023-03-20T18:49:37;101530.88;;;7.50;100.00
24752;BME280;27246;52.376;4.628;2023-03-20T18:54:39;101516.59;;;7.46;100.00
24752;BME280;27246;52.376;4.628;2023-03-20T18:59:41;101516.31;;;7.49;100.00
24752;BME280;27246;52.376;4.628;2023-03-20T19:04:42;101522.97;;;7.47;100.00
24752;BME280;27246;52.376;4.628;2023-03-20T19:09:44;101526.84;;;7.54;100.00
24752;BME280;27246;52.376;4.628;2023-03-20T19:14:46;101530.88;;;7.50;100.00
24752;BME280;27246;52.376;4.628;2023-03-20T19:19:47;101526.56;;;7.47;100.00
24752;BME280;27246;52.376;4.628;2023-03-20T19:24:49;101520.78;;;7.40;100.00
24752;BME280;27246;52.376;4.628;2023-03-20T19:29:50;101520.94;;;7.49;100.00
24752;BME280;27246;52.376;4.628;2023-03-20T19:34:52;101523.69;;;7.49;100.00
24752;BME280;27246;52.376;4.628;2023-03-20T19:40:26;101509.28;;;7.47;100.00
24752;BME280;27246;52.376;4.628;2023-03-20T19:45:32;101503.06;;;7.54;100.00
24752;BME280;27246;52.376;4.628;2023-03-20T19:50:36;101504.78;;;7.55;100.00
24752;BME280;27246;52.376;4.628;2023-03-20T19:55:42;101503.47;;;7.50;100.00
24752;BME280;27246;52.376;4.628;2023-03-20T20:00:45;101500.84;;;7.58;100.00
24752;BME280;27246;52.376;4.628;2023-03-20T20:06:00;101496.69;;;7.54;100.00
24752;BME280;27246;52.376;4.628;2023-03-20T20:11:03;101498.56;;;7.53;100.00
24752;BME280;27246;52.376;4.628;2023-03-20T20:16:05;101491.19;;;7.54;100.00
24752;BME280;27246;52.376;4.628;2023-03-20T20:21:07;101495.38;;;7.58;100.00
24752;BME280;27246;52.376;4.628;2023-03-20T20:26:28;101493.94;;;7.54;100.00
24752;BME280;27246;52.376;4.628;2023-03-20T20:31:35;101497.72;;;7.53;100.00
24752;BME280;27246;52.376;4.628;2023-03-20T20:36:37;101497.41;;;7.56;100.00
24752;BME280;27246;52.376;4.628;2023-03-20T20:41:58;101485.56;;;7.55;100.00
24752;BME280;27246;52.376;4.628;2023-03-20T20:47:00;101485.56;;;7.55;100.00
24752;BME280;27246;52.376;4.628;2023-03-20T20:52:01;101493.66;;;7.57;100.00
24752;BME280;27246;52.376;4.628;2023-03-20T20:57:04;101490.19;;;7.55;100.00
24752;BME280;27246;52.376;4.628;2023-03-20T21:02:08;101485.13;;;7.60;100.00
24752;BME280;27246;52.376;4.628;2023-03-20T21:07:13;101484.41;;;7.58;100.00
24752;BME280;27246;52.376;4.628;2023-03-20T21:12:15;101490.31;;;7.63;100.00
24752;BME280;27246;52.376;4.628;2023-03-20T21:17:35;101494.94;;;7.63;100.00
24752;BME280;27246;52.376;4.628;2023-03-20T21:22:37;101487.84;;;7.60;100.00
24752;BME280;27246;52.376;4.628;2023-03-20T21:27:41;101485.41;;;7.67;100.00
24752;BME280;27246;52.376;4.628;2023-03-20T21:32:43;101492.47;;;7.69;100.00
24752;BME280;27246;52.376;4.628;2023-03-20T21:37:45;101486.25;;;7.67;100.00
24752;BME280;27246;52.376;4.628;2023-03-20T21:43:07;101485.09;;;7.70;100.00
24752;BME280;27246;52.376;4.628;2023-03-20T21:48:09;101480.78;;;7.67;100.00
24752;BME280;27246;52.376;4.628;2023-03-20T21:53:31;101471.94;;;7.73;100.00
24752;BME280;27246;52.376;4.628;2023-03-20T21:58:53;101473.13;;;7.71;100.00
24752;BME280;27246;52.376;4.628;2023-03-20T22:04:14;101469.66;;;7.69;100.00
24752;BME280;27246;52.376;4.628;2023-03-20T22:09:36;101472.22;;;7.70;100.00
24752;BME280;27246;52.376;4.628;2023-03-20T22:14:58;101471.81;;;7.75;100.00
24752;BME280;27246;52.376;4.628;2023-03-20T22:20:19;101476.28;;;7.66;100.00
24752;BME280;27246;52.376;4.628;2023-03-20T22:25:41;101471.81;;;7.75;100.00
24752;BME280;27246;52.376;4.628;2023-03-20T22:31:12;101477.28;;;7.75;100.00
24752;BME280;27246;52.376;4.628;2023-03-20T22:36:34;101468.94;;;7.67;100.00
24752;BME280;27246;52.376;4.628;2023-03-20T22:41:56;101472.22;;;7.70;100.00
24752;BME280;27246;52.376;4.628;2023-03-20T22:47:18;101463.59;;;7.65;100.00
24752;BME280;27246;52.376;4.628;2023-03-20T22:52:21;101469.66;;;7.69;100.00
24752;BME280;27246;52.376;4.628;2023-03-20T22:57:42;101458.53;;;7.70;100.00
24752;BME280;27246;52.376;4.628;2023-03-20T23:03:00;101457.97;;;7.67;100.00
24752;BME280;27246;52.376;4.628;2023-03-20T23:08:16;101448.72;;;7.68;100.00
24752;BME280;27246;52.376;4.628;2023-03-20T23:13:18;101447.88;;;7.67;100.00
24752;BME280;27246;52.376;4.628;2023-03-20T23:18:20;101445.84;;;7.69;100.00
24752;BME280;27246;52.376;4.628;2023-03-20T23:23:23;101452.03;;;7.71;100.00
24752;BME280;27246;52.376;4.628;2023-03-20T23:28:24;101450.28;;;7.70;100.00
24752;BME280;27246;52.376;4.628;2023-03-20T23:33:26;101435.00;;;7.68;100.00
24752;BME280;27246;52.376;4.628;2023-03-20T23:38:28;101443.09;;;7.69;100.00
24752;BME280;27246;52.376;4.628;2023-03-20T23:43:30;101437.63;;;7.69;100.00
24752;BME280;27246;52.376;4.628;2023-03-20T23:48:32;101437.75;;;7.68;100.00
24752;BME280;27246;52.376;4.628;2023-03-20T23:53:34;101442.78;;;7.72;100.00
24752;BME280;27246;52.376;4.628;2023-03-20T23:58:38;101423.59;;;7.72;100.00
